createdAt,value
2018-10-21T00:00:18.527Z,101575.47
2018-10-21T00:02:47.760Z,101576.90
2018-10-21T00:05:18.065Z,101579.39
2018-10-21T00:07:47.287Z,101580.23
2018-10-21T00:10:17.702Z,101575.09
2018-10-21T00:12:46.927Z,101582.18
2018-10-21T00:15:16.853Z,101583.67
2018-10-21T00:17:46.158Z,101575.98
2018-10-21T00:20:16.234Z,101579.66
2018-10-21T00:22:45.447Z,101583.67
2018-10-21T00:25:15.691Z,101578.91
2018-10-21T00:27:44.891Z,101580.73
2018-10-21T00:30:14.457Z,101581.96
2018-10-21T00:32:50.593Z,101577.10
2018-10-21T00:35:20.052Z,101575.69
2018-10-21T00:37:49.269Z,101571.18
2018-10-21T00:40:20.698Z,101578.06
2018-10-21T00:42:49.894Z,101579.70
2018-10-21T00:45:19.191Z,101574.27
2018-10-21T00:47:48.426Z,101569.30
2018-10-21T00:50:18.741Z,101570.04
2018-10-21T00:52:47.967Z,101564.27
2018-10-21T00:55:17.882Z,101565.22
2018-10-21T00:57:47.133Z,101560.45
2018-10-21T01:00:17.282Z,101560.33
2018-10-21T01:02:46.608Z,101565.17
2018-10-21T01:05:17.068Z,101562.27
2018-10-21T01:07:46.284Z,101550.62
2018-10-21T01:10:17.096Z,101551.58
2018-10-21T01:12:46.308Z,101540.84
2018-10-21T01:15:16.578Z,101540.16
2018-10-21T01:17:45.792Z,101540.84
2018-10-21T01:20:16.584Z,101547.82
2018-10-21T01:22:45.944Z,101546.03
2018-10-21T01:25:15.904Z,101550.64
2018-10-21T01:27:45.097Z,101558.13
2018-10-21T01:30:14.673Z,101551.19
2018-10-21T01:32:43.857Z,101548.81
2018-10-21T01:35:13.186Z,101545.66
2018-10-21T01:37:42.459Z,101550.28
2018-10-21T01:40:38.162Z,101545.19
2018-10-21T01:43:08.453Z,101545.11
2018-10-21T01:45:37.682Z,101534.64
2018-10-21T01:48:08.145Z,101546.13
2018-10-21T01:50:37.410Z,101548.56
2018-10-21T01:53:07.797Z,101538.61
2018-10-21T01:55:37.870Z,101544.33
2018-10-21T01:58:07.169Z,101548.63
2018-10-21T02:00:36.666Z,101556.69
2018-10-21T02:03:06.742Z,101560.92
2018-10-21T02:05:36.256Z,101565.70
2018-10-21T02:08:05.640Z,101560.95
2018-10-21T02:10:35.023Z,101558.00
2018-10-21T02:13:04.319Z,101558.83
2018-10-21T02:15:33.573Z,101567.34
2018-10-21T02:18:02.923Z,101562.09
2018-10-21T02:20:32.160Z,101559.42
2018-10-21T02:23:01.396Z,101567.79
2018-10-21T02:25:30.725Z,101569.97
2018-10-21T02:27:59.952Z,101564.42
2018-10-21T02:30:30.115Z,101570.66
2018-10-21T02:33:00.132Z,101568.34
2018-10-21T02:35:29.348Z,101570.09
2018-10-21T02:37:58.831Z,101574.61
2018-10-21T02:41:38.870Z,101576.34
2018-10-21T02:44:13.397Z,101570.45
2018-10-21T02:46:43.270Z,101568.83
2018-10-21T02:49:13.476Z,101567.79
2018-10-21T02:51:42.740Z,101558.64
2018-10-21T02:54:12.108Z,101560.77
2018-10-21T02:56:41.341Z,101570.31
2018-10-21T02:59:10.543Z,101570.95
2018-10-21T03:01:39.802Z,101567.23
2018-10-21T03:04:09.052Z,101572.84
2018-10-21T03:06:38.420Z,101574.81
2018-10-21T03:09:08.344Z,101576.09
2018-10-21T03:11:37.595Z,101572.13
2018-10-21T03:14:06.883Z,101576.34
2018-10-21T03:16:36.123Z,101575.38
2018-10-21T03:19:05.424Z,101571.28
2018-10-21T03:21:34.686Z,101567.56
2018-10-21T03:24:03.992Z,101573.34
2018-10-21T03:26:33.232Z,101573.13
2018-10-21T03:29:02.452Z,101565.17
2018-10-21T03:31:31.709Z,101572.34
2018-10-21T03:34:01.070Z,101570.23
2018-10-21T03:36:30.206Z,101572.97
2018-10-21T03:38:59.430Z,101567.55
2018-10-21T03:41:28.692Z,101567.39
2018-10-21T03:43:57.954Z,101572.59
2018-10-21T03:46:27.197Z,101566.38
2018-10-21T03:48:56.429Z,101567.58
2018-10-21T03:51:25.781Z,101568.42
2018-10-21T03:53:55.013Z,101573.13
2018-10-21T03:56:24.228Z,101569.88
2018-10-21T03:58:53.501Z,101570.88
2018-10-21T04:01:22.807Z,101567.28
2018-10-21T04:03:52.822Z,101569.67
2018-10-21T04:06:22.080Z,101569.97
2018-10-21T04:08:51.262Z,101563.29
2018-10-21T04:11:20.807Z,101567.72
2018-10-21T04:13:50.056Z,101566.03
2018-10-21T04:16:19.305Z,101565.45
2018-10-21T04:18:48.494Z,101571.57
2018-10-21T04:21:17.998Z,101571.03
2018-10-21T04:23:47.232Z,101568.92
2018-10-21T04:26:16.992Z,101566.52
2018-10-21T04:28:46.233Z,101558.28
2018-10-21T04:31:15.729Z,101551.03
2018-10-21T04:33:45.815Z,101561.03
2018-10-21T04:36:17.335Z,101559.03
2018-10-21T04:40:02.018Z,101552.05
2018-10-21T04:42:31.342Z,101544.74
2018-10-21T04:45:01.067Z,101545.34
2018-10-21T04:47:30.594Z,101538.58
2018-10-21T04:49:59.870Z,101527.98
2018-10-21T04:52:30.168Z,101525.91
2018-10-21T04:55:04.710Z,101519.48
2018-10-21T04:57:34.108Z,101522.20
2018-10-21T05:00:03.615Z,101521.09
2018-10-21T05:02:32.818Z,101513.86
2018-10-21T05:05:02.081Z,101515.55
2018-10-21T05:07:31.337Z,101515.98
2018-10-21T05:10:00.632Z,101521.34
2018-10-21T05:12:29.827Z,101515.66
2018-10-21T05:14:59.044Z,101521.97
2018-10-21T05:17:28.270Z,101524.11
2018-10-21T05:19:57.483Z,101521.80
2018-10-21T05:22:26.750Z,101524.05
2018-10-21T05:24:56.014Z,101516.28
2018-10-21T05:27:25.291Z,101521.17
2018-10-21T05:29:54.519Z,101516.34
2018-10-21T05:32:23.707Z,101520.20
2018-10-21T05:34:52.963Z,101521.39
2018-10-21T05:37:22.140Z,101519.03
2018-10-21T05:39:51.375Z,101516.91
2018-10-21T05:42:20.592Z,101520.12
2018-10-21T05:44:49.806Z,101526.80
2018-10-21T05:47:19.098Z,101522.16
2018-10-21T05:49:48.334Z,101532.08
2018-10-21T05:52:17.617Z,101540.08
2018-10-21T05:54:46.765Z,101542.33
2018-10-21T05:57:16.011Z,101554.89
2018-10-21T05:59:45.219Z,101555.28
2018-10-21T06:02:14.494Z,101548.81
2018-10-21T06:04:43.689Z,101551.41
2018-10-21T06:07:12.985Z,101548.11
2018-10-21T06:09:42.224Z,101553.31
2018-10-21T06:12:11.436Z,101559.24
2018-10-21T06:14:40.659Z,101558.69
2018-10-21T06:17:14.121Z,101562.13
2018-10-21T06:19:46.135Z,101561.98
2018-10-21T06:22:15.467Z,101570.69
2018-10-21T06:24:44.579Z,101576.97
2018-10-21T06:27:13.815Z,101581.92
2018-10-21T06:29:43.012Z,101585.28
2018-10-21T06:32:12.424Z,101592.34
2018-10-21T06:34:41.647Z,101594.52
2018-10-21T06:37:11.094Z,101594.23
2018-10-21T06:39:40.366Z,101598.05
2018-10-21T06:42:10.256Z,101600.89
2018-10-21T06:44:39.452Z,101603.33
2018-10-21T06:47:09.592Z,101606.03
2018-10-21T06:49:38.805Z,101603.84
2018-10-21T06:52:08.332Z,101612.44
2018-10-21T06:54:37.542Z,101613.80
2018-10-21T06:57:07.039Z,101619.23
2018-10-21T06:59:36.137Z,101619.47
2018-10-21T07:02:05.650Z,101620.00
2018-10-21T07:04:34.881Z,101621.92
2018-10-21T07:07:04.223Z,101620.18
2018-10-21T07:09:33.439Z,101619.08
2018-10-21T07:12:02.714Z,101616.91
2018-10-21T07:14:31.965Z,101618.31
2018-10-21T07:17:01.168Z,101624.54
2018-10-21T07:19:30.502Z,101612.12
2018-10-21T07:21:59.786Z,101612.03
2018-10-21T07:24:29.005Z,101609.80
2018-10-21T07:26:58.214Z,101611.33
2018-10-21T07:29:27.509Z,101611.58
2018-10-21T07:31:56.729Z,101613.20
2018-10-21T07:34:25.956Z,101617.45
2018-10-21T07:36:55.224Z,101604.95
2018-10-21T07:39:24.428Z,101605.19
2018-10-21T07:41:54.375Z,101605.03
2018-10-21T07:44:23.660Z,101600.89
2018-10-21T07:46:53.247Z,101614.70
2018-10-21T07:49:22.470Z,101607.70
2018-10-21T07:51:51.708Z,101615.17
2018-10-21T07:54:21.911Z,101609.72
2018-10-21T07:56:51.135Z,101607.88
2018-10-21T07:59:20.384Z,101617.28
2018-10-21T08:01:49.777Z,101613.11
2018-10-21T08:04:19.000Z,101609.72
2018-10-21T08:06:59.408Z,101613.55
2018-10-21T08:09:28.657Z,101615.23
2018-10-21T08:11:57.886Z,101611.70
2018-10-21T08:14:27.196Z,101611.08
2018-10-21T08:16:56.420Z,101609.27
2018-10-21T08:19:25.718Z,101606.27
2018-10-21T08:21:54.987Z,101606.67
2018-10-21T08:24:24.150Z,101614.45
2018-10-21T08:26:53.345Z,101610.20
2018-10-21T08:29:22.550Z,101617.05
2018-10-21T08:31:51.747Z,101616.92
2018-10-21T08:34:21.027Z,101612.52
2018-10-21T08:36:50.224Z,101620.23
2018-10-21T08:39:19.430Z,101623.50
2018-10-21T08:41:48.649Z,101609.20
2018-10-21T08:44:17.906Z,101612.01
2018-10-21T08:46:47.244Z,101608.57
2018-10-21T08:49:16.619Z,101606.15
2018-10-21T08:51:45.761Z,101613.11
2018-10-21T08:54:14.997Z,101603.77
2018-10-21T08:56:44.211Z,101600.73
2018-10-21T08:59:13.431Z,101597.92
2018-10-21T09:01:42.759Z,101594.73
2018-10-21T09:04:12.107Z,101592.95
2018-10-21T09:06:41.346Z,101594.22
2018-10-21T09:09:11.862Z,101593.57
2018-10-21T09:11:41.437Z,101584.28
2018-10-21T09:14:11.152Z,101585.36
2018-10-21T09:16:40.455Z,101580.67
2018-10-21T09:19:10.325Z,101588.31
2018-10-21T09:21:39.809Z,101584.05
2018-10-21T09:24:09.380Z,101582.91
2018-10-21T09:26:38.905Z,101581.65
2018-10-21T09:29:08.903Z,101586.18
2018-10-21T09:31:38.125Z,101591.91
2018-10-21T09:34:08.329Z,101593.92
2018-10-21T09:36:37.609Z,101589.41
2018-10-21T09:39:11.436Z,101587.64
2018-10-21T09:41:40.699Z,101584.19
2018-10-21T09:44:10.901Z,101589.43
2018-10-21T09:46:40.874Z,101594.49
2018-10-21T09:49:11.174Z,101585.52
2018-10-21T09:51:40.342Z,101581.14
2018-10-21T09:54:10.347Z,101581.81
2018-10-21T09:56:39.551Z,101573.75
2018-10-21T09:59:09.438Z,101573.43
2018-10-21T10:01:45.139Z,101577.97
2018-10-21T10:04:15.630Z,101569.91
2018-10-21T10:06:45.731Z,101560.61
2018-10-21T10:09:16.265Z,101553.32
2018-10-21T10:11:46.542Z,101550.36
2018-10-21T10:14:17.561Z,101556.35
2018-10-21T10:16:47.134Z,101551.84
2018-10-21T10:19:17.364Z,101553.38
2018-10-21T10:21:46.509Z,101548.27
2018-10-21T10:24:15.731Z,101550.55
2018-10-21T10:26:45.009Z,101545.24
2018-10-21T10:29:14.319Z,101541.27
2018-10-21T10:31:43.485Z,101530.05
2018-10-21T10:34:12.742Z,101529.40
2018-10-21T10:36:41.921Z,101527.05
2018-10-21T10:39:11.766Z,101519.62
2018-10-21T10:41:41.792Z,101514.38
2018-10-21T10:44:11.143Z,101518.13
2018-10-21T10:46:40.385Z,101506.52
2018-10-21T10:49:09.970Z,101507.02
2018-10-21T10:51:39.197Z,101500.59
2018-10-21T10:54:09.001Z,101502.57
2018-10-21T10:56:38.292Z,101492.48
2018-10-21T10:59:07.726Z,101491.36
2018-10-21T11:01:36.953Z,101483.23
2018-10-21T11:04:06.267Z,101480.67
2018-10-21T11:06:35.482Z,101478.53
2018-10-21T11:09:07.732Z,101474.13
2018-10-21T11:11:36.937Z,101475.23
2018-10-21T11:14:06.218Z,101470.31
2018-10-21T11:16:35.540Z,101465.95
2018-10-21T11:19:04.885Z,101471.80
2018-10-21T11:21:34.108Z,101468.59
2018-10-21T11:24:03.363Z,101460.30
2018-10-21T11:26:32.601Z,101448.67
2018-10-21T11:29:01.925Z,101448.47
2018-10-21T11:31:31.309Z,101437.75
2018-10-21T11:34:00.549Z,101448.01
2018-10-21T11:36:30.050Z,101443.47
2018-10-21T11:38:59.258Z,101447.30
2018-10-21T11:41:28.494Z,101433.00
2018-10-21T11:43:57.715Z,101439.97
2018-10-21T11:46:27.326Z,101444.59
2018-10-21T11:48:57.097Z,101437.89
2018-10-21T11:51:26.549Z,101435.27
2018-10-21T11:53:56.071Z,101432.42
2018-10-21T11:56:26.425Z,101431.84
2018-10-21T11:58:56.035Z,101428.23
2018-10-21T12:01:25.444Z,101425.51
2018-10-21T12:03:54.848Z,101416.61
2018-10-21T12:06:24.528Z,101416.44
2018-10-21T12:08:54.197Z,101417.80
2018-10-21T12:11:23.799Z,101416.73
2018-10-21T12:13:53.074Z,101407.84
2018-10-21T12:16:22.340Z,101405.30
2018-10-21T12:18:51.638Z,101401.25
2018-10-21T12:21:20.898Z,101400.50
2018-10-21T12:23:50.356Z,101390.83
2018-10-21T12:26:19.695Z,101394.53
2018-10-21T12:28:48.907Z,101388.97
2018-10-21T12:31:19.714Z,101391.53
2018-10-21T12:33:48.976Z,101392.16
2018-10-21T12:36:18.192Z,101383.66
2018-10-21T12:38:47.391Z,101387.00
2018-10-21T12:41:16.666Z,101388.84
2018-10-21T12:43:45.919Z,101388.81
2018-10-21T12:46:15.205Z,101379.08
2018-10-21T12:48:44.472Z,101373.45
2018-10-21T12:51:13.699Z,101372.11
2018-10-21T12:53:42.883Z,101377.63
2018-10-21T12:56:12.108Z,101379.61
2018-10-21T12:58:41.447Z,101381.24
2018-10-21T13:01:11.493Z,101369.41
2018-10-21T13:03:40.603Z,101373.66
2018-10-21T13:06:10.257Z,101372.34
2018-10-21T13:08:39.471Z,101363.48
2018-10-21T13:11:09.267Z,101364.72
2018-10-21T13:13:38.695Z,101365.55
2018-10-21T13:16:08.472Z,101360.00
2018-10-21T13:18:37.683Z,101357.36
2018-10-21T13:21:07.250Z,101358.97
2018-10-21T13:23:37.053Z,101350.24
2018-10-21T13:26:06.299Z,101353.04
2018-10-21T13:29:01.856Z,101346.56
2018-10-21T13:31:31.021Z,101345.87
2018-10-21T13:34:00.218Z,101340.92
2018-10-21T13:36:29.431Z,101340.03
2018-10-21T13:38:58.751Z,101343.54
2018-10-21T13:41:28.139Z,101334.34
2018-10-21T13:43:57.335Z,101340.23
2018-10-21T13:46:26.674Z,101335.13
2018-10-21T13:48:55.867Z,101335.55
2018-10-21T13:51:25.325Z,101329.91
2018-10-21T13:53:54.468Z,101327.20
2018-10-21T13:56:23.775Z,101321.13
2018-10-21T13:58:53.011Z,101309.36
2018-10-21T14:01:22.348Z,101302.98
2018-10-21T14:03:51.595Z,101297.66
2018-10-21T14:06:20.843Z,101297.99
2018-10-21T14:08:50.086Z,101295.50
2018-10-21T14:11:19.317Z,101296.25
2018-10-21T14:13:48.519Z,101288.05
2018-10-21T14:16:17.828Z,101287.00
2018-10-21T14:18:47.033Z,101286.79
2018-10-21T14:21:16.303Z,101283.16
2018-10-21T14:23:45.540Z,101279.36
2018-10-21T14:26:14.776Z,101275.92
2018-10-21T14:28:44.003Z,101273.13
2018-10-21T14:31:13.339Z,101285.66
2018-10-21T14:33:42.555Z,101283.62
2018-10-21T14:36:11.885Z,101275.47
2018-10-21T14:38:41.050Z,101273.22
2018-10-21T14:41:10.373Z,101271.50
2018-10-21T14:43:39.600Z,101269.43
2018-10-21T14:46:09.323Z,101269.58
2018-10-21T14:48:38.528Z,101267.35
2018-10-21T14:51:08.175Z,101265.94
2018-10-21T14:53:37.361Z,101259.64
2018-10-21T14:56:06.888Z,101265.59
2018-10-21T14:58:36.613Z,101266.98
2018-10-21T15:01:05.915Z,101258.97
2018-10-21T15:03:35.745Z,101261.33
2018-10-21T15:06:04.964Z,101260.81
2018-10-21T15:08:34.183Z,101256.64
2018-10-21T15:11:03.695Z,101253.25
2018-10-21T15:13:32.951Z,101254.80
2018-10-21T15:16:02.206Z,101250.59
2018-10-21T15:18:31.473Z,101252.98
2018-10-21T15:21:00.679Z,101253.26
2018-10-21T15:23:29.967Z,101254.49
2018-10-21T15:25:59.198Z,101260.14
2018-10-21T15:28:28.427Z,101253.15
2018-10-21T15:30:57.682Z,101251.92
2018-10-21T15:33:27.380Z,101253.91
2018-10-21T15:35:56.636Z,101249.34
2018-10-21T15:38:25.946Z,101245.94
2018-10-21T15:40:55.161Z,101244.19
2018-10-21T15:43:24.385Z,101245.38
2018-10-21T15:45:53.747Z,101243.14
2018-10-21T15:48:22.925Z,101245.88
2018-10-21T15:50:52.148Z,101248.17
2018-10-21T15:53:21.423Z,101252.36
2018-10-21T15:55:50.692Z,101256.00
2018-10-21T15:58:19.985Z,101246.69
2018-10-21T16:00:49.228Z,101239.18
2018-10-21T16:03:18.430Z,101242.07
2018-10-21T16:05:47.736Z,101246.27
2018-10-21T16:08:17.040Z,101237.45
2018-10-21T16:10:46.242Z,101236.87
2018-10-21T16:13:15.466Z,101239.11
2018-10-21T16:15:44.789Z,101242.60
2018-10-21T16:18:13.987Z,101247.44
2018-10-21T16:20:43.240Z,101246.03
2018-10-21T16:23:12.790Z,101244.34
2018-10-21T16:25:42.167Z,101245.71
2018-10-21T16:28:11.315Z,101250.37
2018-10-21T16:30:41.202Z,101252.62
2018-10-21T16:33:10.689Z,101256.59
2018-10-21T16:35:39.946Z,101255.16
2018-10-21T16:38:09.435Z,101256.70
2018-10-21T16:40:38.680Z,101243.86
2018-10-21T16:43:07.905Z,101257.52
2018-10-21T16:45:37.163Z,101251.34
2018-10-21T16:48:06.431Z,101255.38
2018-10-21T16:50:37.739Z,101254.03
2018-10-21T16:53:04.873Z,101254.18
2018-10-21T16:55:34.096Z,101256.73
2018-10-21T16:58:03.347Z,101257.47
2018-10-21T17:00:32.695Z,101267.55
2018-10-21T17:03:01.937Z,101258.04
2018-10-21T17:05:31.145Z,101255.62
2018-10-21T17:08:00.392Z,101260.53
2018-10-21T17:10:29.886Z,101261.05
2018-10-21T17:12:58.917Z,101268.23
2018-10-21T17:15:28.179Z,101262.85
2018-10-21T17:17:57.409Z,101257.44
2018-10-21T17:20:26.700Z,101265.91
2018-10-21T17:22:55.896Z,101263.41
2018-10-21T17:25:25.133Z,101260.39
2018-10-21T17:27:54.461Z,101262.90
2018-10-21T17:30:24.662Z,101263.27
2018-10-21T17:32:53.914Z,101259.05
2018-10-21T17:35:23.144Z,101268.09
2018-10-21T17:37:52.735Z,101263.73
2018-10-21T17:40:21.996Z,101262.05
2018-10-21T17:42:51.306Z,101260.72
2018-10-21T17:45:21.149Z,101261.59
2018-10-21T17:47:50.572Z,101252.54
2018-10-21T17:50:20.215Z,101264.31
2018-10-21T17:52:49.476Z,101260.17
2018-10-21T17:55:19.311Z,101261.37
2018-10-21T17:57:48.445Z,101266.89
2018-10-21T18:00:19.212Z,101262.89
2018-10-21T18:02:48.459Z,101259.43
2018-10-21T18:05:19.075Z,101265.31
2018-10-21T18:07:48.429Z,101271.37
2018-10-21T18:10:19.764Z,101264.15
2018-10-21T18:12:49.138Z,101266.86
2018-10-21T18:15:19.240Z,101261.63
2018-10-21T18:17:48.519Z,101267.19
2018-10-21T18:20:19.121Z,101265.33
2018-10-21T18:22:48.422Z,101265.68
2018-10-21T18:25:18.651Z,101267.36
2018-10-21T18:27:47.821Z,101267.84
2018-10-21T18:30:20.174Z,101264.31
2018-10-21T18:32:49.946Z,101262.14
2018-10-21T18:35:19.624Z,101265.31
2018-10-21T18:37:49.238Z,101260.59
2018-10-21T18:40:19.497Z,101262.28
2018-10-21T18:42:48.655Z,101261.83
2018-10-21T18:45:18.540Z,101258.84
2018-10-21T18:47:47.775Z,101263.70
2018-10-21T18:50:17.863Z,101258.19
2018-10-21T18:52:47.083Z,101262.22
2018-10-21T18:55:17.338Z,101256.53
2018-10-21T18:57:46.612Z,101253.84
2018-10-21T19:00:18.500Z,101261.22
2018-10-21T19:02:47.722Z,101259.73
2018-10-21T19:05:18.456Z,101257.70
2018-10-21T19:07:47.643Z,101256.69
2018-10-21T19:10:17.621Z,101264.23
2018-10-21T19:12:59.569Z,101258.38
2018-10-21T19:15:16.671Z,101267.11
2018-10-21T19:17:45.872Z,101267.97
2018-10-21T19:20:17.116Z,101269.48
2018-10-21T19:22:46.784Z,101264.96
2018-10-21T19:25:18.186Z,101272.88
2018-10-21T19:27:47.468Z,101273.19
2018-10-21T19:30:17.408Z,101277.41
2018-10-21T19:32:46.668Z,101284.59
2018-10-21T19:35:18.016Z,101285.45
2018-10-21T19:37:47.220Z,101290.65
2018-10-21T19:40:17.434Z,101287.61
2018-10-21T19:42:46.549Z,101291.64
2018-10-21T19:45:17.000Z,101284.78
2018-10-21T19:47:46.236Z,101289.81
2018-10-21T19:50:17.800Z,101290.64
2018-10-21T19:52:48.467Z,101289.30
2018-10-21T19:55:18.231Z,101291.14
2018-10-21T19:57:47.460Z,101287.63
2018-10-21T20:00:17.713Z,101289.94
2018-10-21T20:02:47.080Z,101288.27
2018-10-21T20:05:18.035Z,101285.91
2018-10-21T20:07:47.235Z,101286.58
2018-10-21T20:10:17.084Z,101288.39
2018-10-21T20:12:46.341Z,101288.40
2018-10-21T20:15:16.041Z,101285.74
2018-10-21T20:17:45.390Z,101285.55
2018-10-21T20:20:14.881Z,101289.55
2018-10-21T20:22:44.055Z,101290.05
2018-10-21T20:25:13.315Z,101287.47
2018-10-21T20:27:42.517Z,101277.37
2018-10-21T20:30:12.796Z,101281.23
2018-10-21T20:32:42.312Z,101287.09
2018-10-21T20:35:12.087Z,101293.09
2018-10-21T20:37:41.362Z,101287.77
2018-10-21T20:40:11.277Z,101293.41
2018-10-21T20:42:40.462Z,101292.88
2018-10-21T20:45:10.824Z,101289.18
2018-10-21T20:47:40.012Z,101293.16
2018-10-21T20:50:09.243Z,101291.30
2018-10-21T20:52:38.551Z,101290.91
2018-10-21T20:55:07.884Z,101288.75
2018-10-21T20:57:37.143Z,101288.08
2018-10-21T21:00:06.479Z,101288.63
2018-10-21T21:02:35.759Z,101300.64
2018-10-21T21:05:05.775Z,101294.48
2018-10-21T21:07:34.965Z,101296.16
2018-10-21T21:10:04.808Z,101296.55
2018-10-21T21:12:33.948Z,101299.56
2018-10-21T21:15:03.211Z,101291.25
2018-10-21T21:17:32.467Z,101295.72
2018-10-21T21:20:01.749Z,101304.75
2018-10-21T21:22:30.955Z,101299.61
2018-10-21T21:25:00.168Z,101298.56
2018-10-21T21:27:29.371Z,101300.24
2018-10-21T21:29:58.645Z,101299.52
2018-10-21T21:32:27.929Z,101301.05
2018-10-21T21:34:57.201Z,101303.75
2018-10-21T21:37:26.445Z,101307.20
2018-10-21T21:39:55.743Z,101311.66
2018-10-21T21:42:24.929Z,101312.30
2018-10-21T21:44:54.121Z,101307.64
2018-10-21T21:47:23.397Z,101315.02
2018-10-21T21:49:52.643Z,101316.03
2018-10-21T21:52:21.937Z,101314.13
2018-10-21T21:54:51.199Z,101309.48
2018-10-21T21:57:20.478Z,101311.80
2018-10-21T21:59:49.655Z,101308.78
2018-10-21T22:02:19.037Z,101312.95
2018-10-21T22:04:48.309Z,101306.59
2018-10-21T22:07:18.105Z,101309.66
2018-10-21T22:09:47.412Z,101307.25
2018-10-21T22:12:16.697Z,101301.84
2018-10-21T22:14:45.856Z,101303.91
2018-10-21T22:17:15.495Z,101303.92
2018-10-21T22:19:44.651Z,101310.14
2018-10-21T22:22:14.679Z,101308.20
2018-10-21T22:24:43.856Z,101307.97
2018-10-21T22:27:13.231Z,101311.04
2018-10-21T22:29:42.662Z,101311.39
2018-10-21T22:32:11.836Z,101306.97
2018-10-21T22:34:41.148Z,101302.30
2018-10-21T22:37:10.353Z,101304.69
2018-10-21T22:39:39.809Z,101305.48
2018-10-21T22:42:10.079Z,101304.95
2018-10-21T22:44:39.214Z,101301.11
2018-10-21T22:47:08.385Z,101294.73
2018-10-21T22:49:37.589Z,101295.61
2018-10-21T22:52:06.941Z,101292.07
2018-10-21T22:54:36.150Z,101289.21
2018-10-21T22:57:09.753Z,101290.37
2018-10-21T22:59:38.942Z,101287.95
2018-10-21T23:02:08.198Z,101284.33
2018-10-21T23:04:37.468Z,101291.34
2018-10-21T23:07:06.686Z,101293.20
2018-10-21T23:19:21.213Z,101289.97
2018-10-21T23:21:50.415Z,101294.27
2018-10-21T23:24:19.684Z,101294.42
2018-10-21T23:26:48.808Z,101298.98
2018-10-21T23:29:18.069Z,101299.67
2018-10-21T23:31:47.259Z,101305.11
2018-10-21T23:34:17.066Z,101306.79
2018-10-21T23:36:46.180Z,101313.47
2018-10-21T23:39:15.912Z,101305.67
2018-10-21T23:41:45.115Z,101313.03
2018-10-21T23:44:14.870Z,101313.47
2018-10-21T23:46:44.068Z,101312.05
2018-10-21T23:49:14.048Z,101307.78
2018-10-21T23:51:43.300Z,101309.42
2018-10-21T23:54:13.224Z,101307.84
2018-10-21T23:56:42.318Z,101307.22
2018-10-21T23:59:12.138Z,101306.16
